createdAt,value
2023-03-01T00:00:06.203Z,11.66
2023-03-01T00:02:38.268Z,11.68
2023-03-01T00:05:05.727Z,11.64
2023-03-01T00:07:32.452Z,11.62
2023-03-01T00:09:59.141Z,11.60
2023-03-01T00:12:25.770Z,11.57
2023-03-01T00:14:52.594Z,11.56
2023-03-01T00:17:19.574Z,11.53
2023-03-01T00:19:46.165Z,11.46
2023-03-01T00:22:12.836Z,11.42
2023-03-01T00:24:39.537Z,11.39
2023-03-01T00:27:06.213Z,11.36
2023-03-01T00:29:32.958Z,11.33
2023-03-01T00:32:00.469Z,11.31
2023-03-01T00:34:27.122Z,11.30
2023-03-01T00:36:55.102Z,11.25
2023-03-01T00:39:21.832Z,11.24
2023-03-01T00:41:48.513Z,11.24
2023-03-01T00:44:15.211Z,11.18
2023-03-01T00:46:42.046Z,11.17
2023-03-01T00:49:08.896Z,11.07
2023-03-01T00:51:35.897Z,11.11
2023-03-01T00:54:03.700Z,11.09
2023-03-01T00:56:31.812Z,11.05
2023-03-01T00:58:58.904Z,11.05
2023-03-01T01:01:31.890Z,11.01
2023-03-01T01:04:05.013Z,10.97
2023-03-01T01:06:46.372Z,10.97
2023-03-01T01:09:18.850Z,10.96
2023-03-01T01:11:48.137Z,10.90
2023-03-01T01:14:15.293Z,10.84
2023-03-01T01:16:42.004Z,10.84
2023-03-01T01:19:09.772Z,10.82
2023-03-01T01:21:37.297Z,10.78
2023-03-01T01:24:05.778Z,10.78
2023-03-01T01:26:34.624Z,10.73
2023-03-01T01:29:03.440Z,10.72
2023-03-01T01:31:31.313Z,10.68
2023-03-01T01:33:59.679Z,10.66
2023-03-01T01:36:26.520Z,10.62
2023-03-01T01:38:53.544Z,10.61
2023-03-01T01:41:21.381Z,10.59
2023-03-01T01:43:51.289Z,10.55
2023-03-01T01:46:31.725Z,10.53
2023-03-01T01:49:04.868Z,10.54
2023-03-01T01:51:39.891Z,10.52
2023-03-01T01:54:23.850Z,10.49
2023-03-01T01:56:57.170Z,10.49
2023-03-01T01:59:26.096Z,10.45
2023-03-01T02:01:53.800Z,10.44
2023-03-01T02:04:21.589Z,10.43
2023-03-01T02:07:11.258Z,10.40
2023-03-01T02:09:38.196Z,10.36
2023-03-01T02:12:05.915Z,10.36
2023-03-01T02:14:34.145Z,10.32
2023-03-01T02:17:00.816Z,10.33
2023-03-01T02:19:50.970Z,10.27
2023-03-01T02:22:24.355Z,10.28
2023-03-01T02:25:20.258Z,10.26
2023-03-01T02:28:04.688Z,10.21
2023-03-01T02:30:33.954Z,10.20
2023-03-01T02:33:05.842Z,10.20
2023-03-01T02:35:37.872Z,10.17
2023-03-01T02:38:08.524Z,10.15
2023-03-01T02:40:39.278Z,10.17
2023-03-01T02:43:09.243Z,10.15
2023-03-01T02:45:36.259Z,10.11
2023-03-01T02:48:03.816Z,10.09
2023-03-01T02:50:30.683Z,10.10
2023-03-01T02:53:06.076Z,10.09
2023-03-01T02:55:32.851Z,10.02
2023-03-01T02:58:02.992Z,10.05
2023-03-01T03:00:46.571Z,10.04
2023-03-01T03:03:17.876Z,10.02
2023-03-01T03:05:45.409Z,9.97
2023-03-01T03:08:12.599Z,10.00
2023-03-01T03:10:42.266Z,9.98
2023-03-01T03:13:14.500Z,9.96
2023-03-01T03:15:43.288Z,9.94
2023-03-01T03:18:12.738Z,9.92
2023-03-01T03:20:41.404Z,9.85
2023-03-01T03:23:08.441Z,9.89
2023-03-01T03:25:38.769Z,9.86
2023-03-01T03:28:10.713Z,9.85
2023-03-01T03:30:40.232Z,9.83
2023-03-01T03:33:08.242Z,9.81
2023-03-01T03:35:44.561Z,9.82
2023-03-01T03:38:16.729Z,9.80
2023-03-01T03:40:52.144Z,9.79
2023-03-01T03:43:22.493Z,9.73
2023-03-01T03:45:51.225Z,9.73
2023-03-01T03:48:19.232Z,9.72
2023-03-01T03:50:51.594Z,9.72
2023-03-01T03:53:19.572Z,9.70
2023-03-01T03:55:50.122Z,9.68
2023-03-01T03:58:19.251Z,9.67
2023-03-01T04:00:46.851Z,9.65
2023-03-01T04:03:16.024Z,9.66
2023-03-01T04:05:43.176Z,9.63
2023-03-01T04:08:10.544Z,9.61
2023-03-01T04:10:45.830Z,9.60
2023-03-01T04:13:15.336Z,9.58
2023-03-01T04:15:41.965Z,9.56
2023-03-01T04:18:10.903Z,9.55
2023-03-01T04:20:37.597Z,9.54
2023-03-01T04:23:17.257Z,9.53
2023-03-01T04:25:47.153Z,9.52
2023-03-01T04:28:13.844Z,9.51
2023-03-01T04:30:40.757Z,9.50
2023-03-01T04:33:09.227Z,9.48
2023-03-01T04:35:37.424Z,9.48
2023-03-01T04:38:05.082Z,9.44
2023-03-01T04:40:32.101Z,9.46
2023-03-01T04:42:58.920Z,9.43
2023-03-01T04:45:25.912Z,9.43
2023-03-01T04:47:53.257Z,9.40
2023-03-01T04:50:24.578Z,9.39
2023-03-01T04:52:51.389Z,9.39
2023-03-01T04:55:18.354Z,9.39
2023-03-01T04:57:45.108Z,9.36
2023-03-01T05:00:23.057Z,9.38
2023-03-01T05:02:55.597Z,9.34
2023-03-01T05:05:34.322Z,9.35
2023-03-01T05:08:03.736Z,9.33
2023-03-01T05:10:31.841Z,9.31
2023-03-01T05:13:00.037Z,9.30
2023-03-01T05:15:28.898Z,9.29
2023-03-01T05:17:59.643Z,9.31
2023-03-01T05:20:30.914Z,9.26
2023-03-01T05:23:00.605Z,9.26
2023-03-01T05:25:27.896Z,9.26
2023-03-01T05:27:54.660Z,9.25
2023-03-01T05:30:22.562Z,9.23
2023-03-01T05:32:50.915Z,9.21
2023-03-01T05:35:18.944Z,9.22
2023-03-01T05:37:48.323Z,9.20
2023-03-01T05:40:20.833Z,9.32
2023-03-01T05:42:55.922Z,9.29
2023-03-01T05:45:23.874Z,9.24
2023-03-01T05:47:51.221Z,9.20
2023-03-01T05:50:24.022Z,9.18
2023-03-01T05:53:02.397Z,9.15
2023-03-01T05:55:31.415Z,9.10
2023-03-01T05:58:03.840Z,9.12
2023-03-01T06:00:31.675Z,9.13
2023-03-01T06:02:59.792Z,9.10
2023-03-01T06:05:27.764Z,9.08
2023-03-01T06:07:54.821Z,9.09
2023-03-01T06:10:23.537Z,9.07
2023-03-01T06:12:50.371Z,9.06
2023-03-01T06:15:17.985Z,9.04
2023-03-01T06:17:46.916Z,9.00
2023-03-01T06:20:19.516Z,8.99
2023-03-01T06:22:47.423Z,9.03
2023-03-01T06:25:16.480Z,8.99
2023-03-01T06:27:43.514Z,8.95
2023-03-01T06:30:13.125Z,8.95
2023-03-01T06:32:42.973Z,8.92
2023-03-01T06:35:15.390Z,8.92
2023-03-01T06:37:42.610Z,8.90
2023-03-01T06:40:12.419Z,8.89
2023-03-01T06:42:41.125Z,8.88
2023-03-01T06:45:09.196Z,8.87
2023-03-01T06:47:36.063Z,8.88
2023-03-01T06:50:04.175Z,8.88
2023-03-01T06:52:30.821Z,8.83
2023-03-01T06:54:57.505Z,8.84
2023-03-01T06:57:24.597Z,8.82
2023-03-01T06:59:51.466Z,8.81
2023-03-01T07:02:18.269Z,8.79
2023-03-01T07:04:44.871Z,8.79
2023-03-01T07:07:11.701Z,8.75
2023-03-01T07:09:38.637Z,8.75
2023-03-01T07:12:05.659Z,8.77
2023-03-01T07:14:32.385Z,8.79
2023-03-01T07:16:59.238Z,8.75
2023-03-01T07:19:26.002Z,8.76
2023-03-01T07:21:52.810Z,8.73
2023-03-01T07:24:19.860Z,8.70
2023-03-01T07:26:52.960Z,8.71
2023-03-01T07:29:19.751Z,8.72
2023-03-01T07:31:46.967Z,8.69
2023-03-01T07:34:13.835Z,8.67
2023-03-01T07:36:44.226Z,8.68
2023-03-01T07:39:12.097Z,8.67
2023-03-01T07:41:39.174Z,8.69
2023-03-01T07:44:05.927Z,8.67
2023-03-01T07:46:32.967Z,8.71
2023-03-01T07:48:59.887Z,8.82
2023-03-01T07:51:26.534Z,8.95
2023-03-01T07:53:53.165Z,8.99
2023-03-01T07:56:20.572Z,8.98
2023-03-01T07:58:49.225Z,9.04
2023-03-01T08:01:19.050Z,9.13
2023-03-01T08:03:46.550Z,9.21
2023-03-01T08:06:15.065Z,9.32
2023-03-01T08:08:42.205Z,9.41
2023-03-01T08:11:11.509Z,9.50
2023-03-01T08:13:38.356Z,9.63
2023-03-01T08:16:13.200Z,9.72
2023-03-01T08:18:40.235Z,9.90
2023-03-01T08:21:10.304Z,9.99
2023-03-01T08:23:37.497Z,10.11
2023-03-01T08:26:11.694Z,10.13
2023-03-01T08:28:39.380Z,10.20
2023-03-01T08:31:33.861Z,10.26
2023-03-01T08:34:01.933Z,10.27
2023-03-01T08:36:34.650Z,10.29
2023-03-01T08:39:01.432Z,10.38
2023-03-01T08:41:28.550Z,10.39
2023-03-01T08:43:59.743Z,10.44
2023-03-01T08:46:35.460Z,10.52
2023-03-01T08:49:06.566Z,10.54
2023-03-01T08:51:37.497Z,10.57
2023-03-01T08:54:06.604Z,10.69
2023-03-01T08:56:34.272Z,10.64
2023-03-01T08:59:00.899Z,10.65
2023-03-01T09:01:27.614Z,10.63
2023-03-01T09:03:54.569Z,10.70
2023-03-01T09:06:21.375Z,10.78
2023-03-01T09:08:50.263Z,10.77
2023-03-01T09:11:21.285Z,10.78
2023-03-01T09:13:50.281Z,10.81
2023-03-01T09:16:20.197Z,10.88
2023-03-01T09:18:51.621Z,10.92
2023-03-01T09:21:27.501Z,10.97
2023-03-01T09:24:04.584Z,10.98
2023-03-01T09:26:31.389Z,11.01
2023-03-01T09:28:58.219Z,11.15
2023-03-01T09:31:25.873Z,11.10
2023-03-01T09:33:54.822Z,11.16
2023-03-01T09:36:24.215Z,11.23
2023-03-01T09:38:53.068Z,11.19
2023-03-01T09:41:38.279Z,11.15
2023-03-01T09:44:11.739Z,11.28
2023-03-01T09:46:42.718Z,11.30
2023-03-01T09:49:20.177Z,11.42
2023-03-01T09:51:56.789Z,11.49
2023-03-01T09:54:23.654Z,11.52
2023-03-01T09:56:53.381Z,11.43
2023-03-01T09:59:45.976Z,11.43
2023-03-01T10:02:30.254Z,11.42
2023-03-01T10:05:11.200Z,11.42
2023-03-01T10:07:55.821Z,11.40
2023-03-01T10:10:34.804Z,11.46
2023-03-01T10:13:35.001Z,11.45
2023-03-01T10:16:11.343Z,11.48
2023-03-01T10:18:40.847Z,11.49
2023-03-01T10:21:18.598Z,11.44
2023-03-01T10:23:45.683Z,11.47
2023-03-01T10:26:45.850Z,11.51
2023-03-01T10:29:14.113Z,11.60
2023-03-01T10:31:53.134Z,11.55
2023-03-01T10:34:29.652Z,11.57
2023-03-01T10:37:20.267Z,11.59
2023-03-01T10:39:57.355Z,11.58
2023-03-01T10:42:29.382Z,11.64
2023-03-01T10:44:58.717Z,11.62
2023-03-01T10:47:28.799Z,11.64
2023-03-01T10:50:01.927Z,11.64
2023-03-01T10:52:35.678Z,11.65
2023-03-01T10:55:26.206Z,11.68
2023-03-01T10:58:08.604Z,11.65
2023-03-01T11:00:48.137Z,11.69
2023-03-01T11:03:21.885Z,11.69
2023-03-01T11:05:54.679Z,11.68
2023-03-01T11:08:37.098Z,11.71
2023-03-01T11:11:30.724Z,11.71
2023-03-01T11:14:19.383Z,11.75
2023-03-01T11:17:34.666Z,11.75
2023-03-01T11:20:14.631Z,11.78
2023-03-01T11:22:56.651Z,11.82
2023-03-01T11:25:28.003Z,11.86
2023-03-01T11:27:55.597Z,11.88
2023-03-01T11:30:28.583Z,11.91
2023-03-01T11:33:04.412Z,11.94
2023-03-01T11:35:34.341Z,11.95
2023-03-01T11:38:13.312Z,11.99
2023-03-01T11:41:18.958Z,12.22
2023-03-01T11:43:48.457Z,12.30
2023-03-01T11:46:33.118Z,12.44
2023-03-01T11:49:18.621Z,12.41
2023-03-01T11:51:54.484Z,12.32
2023-03-01T11:54:35.882Z,12.28
2023-03-01T11:57:15.839Z,12.32
2023-03-01T12:00:00.897Z,12.33
2023-03-01T12:02:40.061Z,12.36
2023-03-01T12:05:16.020Z,12.32
2023-03-01T12:07:54.206Z,12.38
2023-03-01T12:10:39.396Z,12.39
2023-03-01T12:13:38.645Z,12.43
2023-03-01T12:16:05.837Z,12.45
2023-03-01T12:18:40.436Z,12.51
2023-03-01T12:21:13.008Z,12.51
2023-03-01T12:24:02.210Z,12.44
2023-03-01T12:26:34.377Z,12.48
2023-03-01T12:29:27.404Z,12.47
2023-03-01T12:32:19.931Z,12.53
2023-03-01T12:35:01.508Z,12.45
2023-03-01T12:37:51.465Z,12.48
2023-03-01T12:40:38.904Z,12.49
2023-03-01T12:43:28.423Z,12.51
2023-03-01T12:46:40.234Z,12.52
2023-03-01T12:49:13.661Z,12.55
2023-03-01T12:51:43.929Z,12.55
2023-03-01T12:54:20.849Z,12.54
2023-03-01T12:56:53.184Z,12.58
2023-03-01T12:59:38.513Z,12.59
2023-03-01T13:02:32.494Z,12.57
2023-03-01T13:05:08.144Z,12.60
2023-03-01T13:07:40.420Z,12.66
2023-03-01T13:10:19.772Z,12.66
2023-03-01T13:13:03.265Z,12.67
2023-03-01T13:15:35.448Z,12.71
2023-03-01T13:18:26.413Z,12.70
2023-03-01T13:21:11.895Z,12.70
2023-03-01T13:23:40.587Z,12.74
2023-03-01T13:26:16.563Z,12.74
2023-03-01T13:28:46.110Z,12.94
2023-03-01T13:31:22.116Z,13.00
2023-03-01T13:33:52.763Z,13.08
2023-03-01T13:36:28.900Z,12.98
2023-03-01T13:38:59.229Z,12.96
2023-03-01T13:41:43.882Z,12.95
2023-03-01T13:44:32.829Z,12.97
2023-03-01T13:47:18.395Z,13.00
2023-03-01T13:50:05.006Z,13.01
2023-03-01T13:52:38.539Z,13.10
2023-03-01T13:55:14.903Z,13.08
2023-03-01T13:57:46.797Z,13.05
2023-03-01T14:00:35.847Z,13.08
2023-03-01T14:03:06.351Z,13.11
2023-03-01T14:05:34.852Z,13.11
2023-03-01T14:08:01.502Z,13.16
2023-03-01T14:10:38.044Z,13.16
2023-03-01T14:13:19.891Z,13.14
2023-03-01T14:16:01.869Z,13.18
2023-03-01T14:18:44.665Z,13.21
2023-03-01T14:21:15.709Z,13.21
2023-03-01T14:23:43.155Z,13.25
2023-03-01T14:26:13.005Z,13.24
2023-03-01T14:28:40.833Z,13.25
2023-03-01T14:31:36.248Z,13.27
2023-03-01T14:34:06.198Z,13.31
2023-03-01T14:36:35.301Z,13.32
2023-03-01T14:39:06.063Z,13.32
2023-03-01T14:41:36.838Z,13.34
2023-03-01T14:44:14.591Z,13.38
2023-03-01T14:46:44.589Z,13.53
2023-03-01T14:49:16.304Z,13.60
2023-03-01T14:51:50.957Z,13.58
2023-03-01T14:54:43.118Z,13.60
2023-03-01T14:57:22.848Z,13.71
2023-03-01T14:59:51.805Z,13.74
2023-03-01T15:02:21.776Z,13.79
2023-03-01T15:04:52.569Z,13.86
2023-03-01T15:07:20.367Z,13.84
2023-03-01T15:09:47.789Z,13.85
2023-03-01T15:12:29.682Z,13.93
2023-03-01T15:15:04.336Z,14.03
2023-03-01T15:17:39.226Z,14.05
2023-03-01T15:20:17.736Z,14.07
2023-03-01T15:22:49.562Z,14.11
2023-03-01T15:25:22.340Z,14.09
2023-03-01T15:27:51.502Z,13.99
2023-03-01T15:30:38.520Z,13.99
2023-03-01T15:33:30.553Z,14.01
2023-03-01T15:35:59.674Z,14.01
2023-03-01T15:38:29.153Z,14.02
2023-03-01T15:40:56.895Z,14.01
2023-03-01T15:43:47.433Z,14.00
2023-03-01T15:46:26.013Z,13.98
2023-03-01T15:48:57.435Z,13.99
2023-03-01T15:51:36.843Z,14.07
2023-03-01T15:54:06.017Z,14.10
2023-03-01T15:56:33.435Z,14.13
2023-03-01T15:59:02.367Z,14.14
2023-03-01T16:01:30.128Z,14.18
2023-03-01T16:03:58.454Z,14.20
2023-03-01T16:06:25.454Z,14.17
2023-03-01T16:08:52.155Z,14.22
2023-03-01T16:11:20.846Z,14.13
2023-03-01T16:13:47.833Z,14.10
2023-03-01T16:16:17.459Z,14.04
2023-03-01T16:18:47.020Z,14.07
2023-03-01T16:21:16.563Z,13.99
2023-03-01T16:23:43.979Z,13.95
2023-03-01T16:26:11.473Z,13.95
2023-03-01T16:28:38.344Z,13.89
2023-03-01T16:31:05.562Z,13.94
2023-03-01T16:33:34.188Z,13.89
2023-03-01T16:36:07.380Z,13.86
2023-03-01T16:38:34.431Z,13.87
2023-03-01T16:41:01.502Z,13.85
2023-03-01T16:43:28.358Z,13.77
2023-03-01T16:45:55.168Z,13.79
2023-03-01T16:48:21.901Z,13.76
2023-03-01T16:50:57.993Z,13.75
2023-03-01T16:53:24.623Z,13.75
2023-03-01T16:56:11.943Z,13.76
2023-03-01T16:58:40.925Z,13.78
2023-03-01T17:01:19.479Z,13.78
2023-03-01T17:03:48.565Z,13.82
2023-03-01T17:06:18.673Z,13.74
2023-03-01T17:08:45.410Z,13.78
2023-03-01T17:11:15.327Z,13.83
2023-03-01T17:13:42.543Z,13.80
2023-03-01T17:16:12.402Z,13.81
2023-03-01T17:18:39.334Z,13.91
2023-03-01T17:21:07.884Z,13.85
2023-03-01T17:23:35.579Z,13.87
2023-03-01T17:26:02.914Z,13.85
2023-03-01T17:28:32.618Z,13.83
2023-03-01T17:31:01.090Z,13.87
2023-03-01T17:33:31.042Z,13.89
2023-03-01T17:35:58.658Z,13.90
2023-03-01T17:38:25.727Z,13.88
2023-03-01T17:40:52.652Z,13.91
2023-03-01T17:43:20.145Z,13.95
2023-03-01T17:45:52.328Z,13.89
2023-03-01T17:48:19.311Z,13.88
2023-03-01T17:50:46.359Z,13.90
2023-03-01T17:53:13.902Z,13.89
2023-03-01T17:55:42.382Z,13.90
2023-03-01T17:58:11.895Z,13.89
2023-03-01T18:00:39.122Z,13.91
2023-03-01T18:03:06.599Z,13.90
2023-03-01T18:05:34.979Z,13.88
2023-03-01T18:08:01.867Z,13.82
2023-03-01T18:10:28.770Z,13.90
2023-03-01T18:12:55.505Z,13.89
2023-03-01T18:15:22.211Z,13.88
2023-03-01T18:17:49.656Z,13.89
2023-03-01T18:20:17.928Z,13.85
2023-03-01T18:22:44.551Z,13.82
2023-03-01T18:25:11.372Z,13.88
2023-03-01T18:27:38.560Z,13.87
2023-03-01T18:30:07.709Z,13.83
2023-03-01T18:32:34.540Z,13.84
2023-03-01T18:35:01.340Z,13.85
2023-03-01T18:37:28.087Z,13.86
2023-03-01T18:39:54.800Z,13.83
2023-03-01T18:42:22.153Z,13.85
2023-03-01T18:44:49.402Z,13.83
2023-03-01T18:47:17.131Z,13.80
2023-03-01T18:49:44.409Z,13.80
2023-03-01T18:52:11.920Z,13.84
2023-03-01T18:54:38.634Z,13.84
2023-03-01T18:57:05.430Z,13.82
2023-03-01T18:59:32.466Z,13.86
2023-03-01T19:01:59.481Z,13.81
2023-03-01T19:04:27.313Z,13.83
2023-03-01T19:06:54.111Z,13.81
2023-03-01T19:09:21.056Z,13.78
2023-03-01T19:11:48.063Z,13.83
2023-03-01T19:14:14.867Z,13.83
2023-03-01T19:16:41.634Z,13.82
2023-03-01T19:19:10.167Z,13.88
2023-03-01T19:21:37.536Z,13.88
2023-03-01T19:24:04.559Z,13.89
2023-03-01T19:26:32.914Z,13.88
2023-03-01T19:29:00.738Z,13.86
2023-03-01T19:31:29.629Z,13.88
2023-03-01T19:34:15.662Z,13.88
2023-03-01T19:36:43.738Z,13.85
2023-03-01T19:39:13.754Z,13.88
2023-03-01T19:41:41.166Z,13.96
2023-03-01T19:44:08.767Z,13.92
2023-03-01T19:46:36.406Z,13.89
2023-03-01T19:49:03.766Z,13.89
2023-03-01T19:51:33.452Z,13.84
2023-03-01T19:54:00.735Z,13.87
2023-03-01T19:56:27.709Z,13.93
2023-03-01T19:59:00.473Z,13.98
2023-03-01T20:01:29.750Z,13.93
2023-03-01T20:03:56.560Z,13.91
2023-03-01T20:06:23.357Z,13.89
2023-03-01T20:08:50.045Z,13.88
2023-03-01T20:11:18.367Z,13.88
2023-03-01T20:13:45.737Z,13.94
2023-03-01T20:16:16.829Z,13.89
2023-03-01T20:18:43.618Z,13.90
2023-03-01T20:21:21.714Z,13.89
2023-03-01T20:23:50.032Z,13.87
2023-03-01T20:26:19.625Z,13.87
2023-03-01T20:28:48.580Z,13.98
2023-03-01T20:31:17.048Z,14.10
2023-03-01T20:33:44.598Z,14.09
2023-03-01T20:36:12.106Z,14.15
2023-03-01T20:38:39.418Z,14.09
2023-03-01T20:41:09.507Z,14.08
2023-03-01T20:43:37.143Z,14.07
2023-03-01T20:46:08.318Z,14.06
2023-03-01T20:48:37.912Z,14.08
2023-03-01T20:51:09.581Z,13.98
2023-03-01T20:53:36.504Z,13.77
2023-03-01T20:56:04.789Z,13.57
2023-03-01T20:58:35.757Z,13.44
2023-03-01T21:01:04.269Z,13.37
2023-03-01T21:03:31.791Z,13.26
2023-03-01T21:06:02.139Z,13.19
2023-03-01T21:08:30.050Z,13.14
2023-03-01T21:10:57.846Z,13.10
2023-03-01T21:13:26.347Z,13.04
2023-03-01T21:16:01.220Z,13.00
2023-03-01T21:18:30.047Z,12.93
2023-03-01T21:21:01.260Z,12.90
2023-03-01T21:23:32.591Z,12.85
2023-03-01T21:26:08.637Z,12.80
2023-03-01T21:28:37.222Z,12.78
2023-03-01T21:31:15.875Z,12.72
2023-03-01T21:33:48.488Z,12.66
2023-03-01T21:36:16.584Z,12.63
2023-03-01T21:38:46.441Z,12.62
2023-03-01T21:41:17.731Z,12.56
2023-03-01T21:43:46.268Z,12.52
2023-03-01T21:46:15.549Z,12.49
2023-03-01T21:48:45.129Z,12.46
2023-03-01T21:51:15.040Z,12.41
2023-03-01T21:53:42.615Z,12.38
2023-03-01T21:56:10.621Z,12.33
2023-03-01T21:58:37.358Z,12.30
2023-03-01T22:01:10.885Z,12.26
2023-03-01T22:03:46.655Z,12.24
2023-03-01T22:06:20.391Z,12.20
2023-03-01T22:08:59.004Z,12.15
2023-03-01T22:11:28.354Z,12.13
2023-03-01T22:13:56.573Z,12.10
2023-03-01T22:16:29.687Z,12.08
2023-03-01T22:18:57.800Z,12.06
2023-03-01T22:21:25.737Z,12.02
2023-03-01T22:23:54.234Z,11.97
2023-03-01T22:26:41.648Z,11.92
2023-03-01T22:29:14.943Z,11.90
2023-03-01T22:31:42.868Z,11.88
2023-03-01T22:34:10.336Z,11.87
2023-03-01T22:36:39.451Z,11.86
2023-03-01T22:39:06.595Z,11.82
2023-03-01T22:41:37.519Z,11.81
2023-03-01T22:44:04.523Z,11.79
2023-03-01T22:46:32.069Z,11.75
2023-03-01T22:48:59.016Z,11.75
2023-03-01T22:51:29.571Z,11.72
2023-03-01T22:53:57.106Z,11.72
2023-03-01T22:56:30.787Z,11.69
2023-03-01T22:58:59.277Z,11.65
2023-03-01T23:01:27.354Z,11.65
2023-03-01T23:03:54.170Z,11.64
2023-03-01T23:06:22.497Z,11.65
2023-03-01T23:08:54.904Z,11.62
2023-03-01T23:11:22.801Z,11.60
2023-03-01T23:13:50.379Z,11.57
2023-03-01T23:16:17.490Z,11.56
2023-03-01T23:18:45.106Z,11.54
2023-03-01T23:21:17.471Z,11.51
2023-03-01T23:23:47.049Z,11.49
2023-03-01T23:26:15.013Z,11.45
2023-03-01T23:28:42.253Z,11.43
2023-03-01T23:31:12.157Z,11.42
2023-03-01T23:33:39.703Z,11.39
2023-03-01T23:36:26.237Z,11.35
2023-03-01T23:38:59.851Z,11.35
2023-03-01T23:41:30.002Z,11.33
2023-03-01T23:43:58.874Z,11.30
2023-03-01T23:46:28.520Z,11.31
2023-03-01T23:48:56.038Z,11.28
2023-03-01T23:51:24.390Z,11.27
2023-03-01T23:53:55.625Z,11.25
2023-03-01T23:56:28.382Z,11.22
2023-03-01T23:58:57.574Z,11.21
